Time;durP1;ratioP1;P1;durP2;ratioP2;P2;SDS_P1;SDS_P2;PMS_P1;PMS_P2;Temp;Humidity;BMP_temperature;BMP_pressure;BME280_temperature;BME280_humidity;BME280_pressure;Samples;Min_cycle;Max_cycle;Signal;HPM_P1;HPM_P2
2021/08/19 00:00:04;;;;;;;;;;;30.00;40.10;;;;;;4343811;33;19957;-37
2021/08/19 00:02:30;;;;;;;;;;;29.90;40.20;;;;;;4311460;33;19955;-37
2021/08/19 00:04:57;;;;;;;;;;;29.80;40.50;;;;;;4312144;33;20439;-37
2021/08/19 00:07:23;;;;;;;;;;;29.80;40.60;;;;;;4299877;33;19973;-36
2021/08/19 00:09:49;;;;;;;;;;;29.70;40.80;;;;;;4282771;33;19987;-37
2021/08/19 00:12:15;;;;;;;;;;;29.70;41.10;;;;;;4270618;33;19962;-37
2021/08/19 00:14:41;;;;;;;;;;;29.60;41.20;;;;;;4283381;33;19963;-37
2021/08/19 00:17:08;;;;;;;;;;;29.60;41.30;;;;;;4289746;33;20126;-38
2021/08/19 00:19:34;;;;;;;;;;;29.50;41.50;;;;;;4297329;33;20046;-37
2021/08/19 00:22:01;;;;;;;;;;;29.50;41.70;;;;;;4297141;33;20006;-37
2021/08/19 00:24:27;;;;;;;;;;;29.50;41.80;;;;;;4297698;33;19982;-36
2021/08/19 00:26:54;;;;;;;;;;;29.50;41.90;;;;;;4297275;33;19959;-37
2021/08/19 00:29:20;;;;;;;;;;;29.50;41.90;;;;;;4297065;33;20046;-37
2021/08/19 00:31:46;;;;;;;;;;;29.50;42.00;;;;;;4304131;33;19965;-37
2021/08/19 00:34:12;;;;;;;;;;;29.40;42.10;;;;;;4334684;33;20507;-37
2021/08/19 00:36:39;;;;;;;;;;;29.40;42.20;;;;;;4341089;33;19992;-38
2021/08/19 00:39:05;;;;;;;;;;;29.40;42.30;;;;;;4341136;33;20063;-37
2021/08/19 00:41:32;;;;;;;;;;;29.40;42.40;;;;;;4340704;33;20041;-37
2021/08/19 00:44:02;;;;;;;;;;;29.30;42.50;;;;;;4341255;33;19966;-37
2021/08/19 00:46:36;;;;;;;;;;;29.30;42.60;;;;;;4331338;32;19999;-38
2021/08/19 00:49:11;;;;;;;;;;;29.30;42.60;;;;;;4358237;32;19995;-37
2021/08/19 00:51:45;;;;;;;;;;;29.20;42.70;;;;;;4358383;32;20051;-38
2021/08/19 00:54:18;;;;;;;;;;;29.20;42.70;;;;;;4344457;32;19993;-37
2021/08/19 00:56:44;;;;;;;;;;;29.10;42.90;;;;;;4345516;32;19958;-38
2021/08/19 00:59:13;;;;;;;;;;;29.10;43.00;;;;;;4358347;32;20354;-38
2021/08/19 01:01:39;;;;;;;;;;;29.10;43.10;;;;;;4332267;32;19972;-38
2021/08/19 01:04:07;;;;;;;;;;;29.10;43.20;;;;;;4359565;32;19964;-37
2021/08/19 01:06:36;;;;;;;;;;;29.10;43.20;;;;;;4361231;32;19966;-38
2021/08/19 01:09:05;;;;;;;;;;;29.10;43.40;;;;;;4361252;32;20050;-38
2021/08/19 01:11:34;;;;;;;;;;;29.00;43.30;;;;;;4361476;32;19958;-38
2021/08/19 01:14:00;;;;;;;;;;;29.00;43.40;;;;;;4361272;32;20050;-37
2021/08/19 01:16:28;;;;;;;;;;;29.00;43.40;;;;;;4361093;32;19969;-37
2021/08/19 01:18:54;;;;;;;;;;;29.00;43.50;;;;;;4343803;33;20042;-36
2021/08/19 01:21:20;;;;;;;;;;;29.00;43.60;;;;;;4343718;33;20452;-38
2021/08/19 01:23:46;;;;;;;;;;;29.00;43.80;;;;;;4343471;33;19958;-38
2021/08/19 01:26:15;;;;;;;;;;;29.00;43.90;;;;;;4343547;33;20065;-37
2021/08/19 01:28:42;;;;;;;;;;;29.00;43.90;;;;;;4343580;33;19981;-38
2021/08/19 01:31:10;;;;;;;;;;;29.10;44.10;;;;;;4340334;33;20047;-37
2021/08/19 01:33:36;;;;;;;;;;;29.00;44.00;;;;;;4316428;33;19970;-39
2021/08/19 01:36:02;;;;;;;;;;;29.10;43.90;;;;;;4316298;33;20032;-37
2021/08/19 01:38:30;;;;;;;;;;;29.00;43.90;;;;;;4328628;33;19962;-38
2021/08/19 01:40:56;;;;;;;;;;;29.10;43.90;;;;;;4328668;33;20105;-37
2021/08/19 01:43:24;;;;;;;;;;;29.10;43.90;;;;;;4329072;33;20030;-38
2021/08/19 01:46:11;;;;;;;;;;;29.10;43.80;;;;;;4328529;33;19963;-39
2021/08/19 01:48:41;;;;;;;;;;;29.10;43.80;;;;;;4328237;33;19969;-39
2021/08/19 01:51:10;;;;;;;;;;;29.10;43.70;;;;;;4346534;32;20402;-38
2021/08/19 01:53:37;;;;;;;;;;;29.20;43.80;;;;;;4360269;32;20503;-37
2021/08/19 01:56:04;;;;;;;;;;;29.20;43.70;;;;;;4346580;32;20394;-38
2021/08/19 01:58:30;;;;;;;;;;;29.20;43.60;;;;;;4360465;32;19993;-38
2021/08/19 02:00:56;;;;;;;;;;;29.30;43.50;;;;;;4360523;32;20396;-38
2021/08/19 02:03:22;;;;;;;;;;;29.30;43.30;;;;;;4360484;32;19973;-38
2021/08/19 02:05:48;;;;;;;;;;;29.40;43.20;;;;;;4301351;33;19975;-39
2021/08/19 02:08:16;;;;;;;;;;;29.40;42.90;;;;;;4313812;33;19963;-38
2021/08/19 02:10:42;;;;;;;;;;;29.40;42.60;;;;;;4313828;33;20082;-39
2021/08/19 02:13:08;;;;;;;;;;;29.40;42.30;;;;;;4313322;33;20105;-38
2021/08/19 02:15:34;;;;;;;;;;;29.50;42.30;;;;;;4312909;33;19955;-37
2021/08/19 02:18:01;;;;;;;;;;;29.50;42.20;;;;;;4313643;33;20048;-38
2021/08/19 02:20:27;;;;;;;;;;;29.50;41.90;;;;;;4328394;33;20049;-39
2021/08/19 02:23:00;;;;;;;;;;;29.60;41.90;;;;;;4327974;33;19959;-38
2021/08/19 02:25:26;;;;;;;;;;;29.70;41.80;;;;;;4328366;33;19992;-39
2021/08/19 02:27:52;;;;;;;;;;;29.80;41.60;;;;;;4315791;33;20133;-38
2021/08/19 02:30:19;;;;;;;;;;;29.90;41.40;;;;;;4328290;33;19962;-38
2021/08/19 02:32:45;;;;;;;;;;;30.00;41.30;;;;;;4329428;32;19965;-38
2021/08/19 02:35:12;;;;;;;;;;;30.20;41.10;;;;;;4357133;32;19984;-38
2021/08/19 02:37:38;;;;;;;;;;;30.40;41.60;;;;;;4345434;32;19971;-38
2021/08/19 02:40:05;;;;;;;;;;;30.70;40.80;;;;;;4357510;32;20029;-37
2021/08/19 02:42:34;;;;;;;;;;;31.00;40.60;;;;;;4354552;32;19966;-37
2021/08/19 02:45:00;;;;;;;;;;;31.30;40.40;;;;;;4345242;32;19974;-37
2021/08/19 02:47:26;;;;;;;;;;;31.50;40.00;;;;;;4344941;32;19990;-37
2021/08/19 02:49:52;;;;;;;;;;;31.80;39.70;;;;;;4344880;32;19980;-37
2021/08/19 02:52:18;;;;;;;;;;;32.10;39.50;;;;;;4344773;32;20457;-38
2021/08/19 02:54:44;;;;;;;;;;;32.30;39.30;;;;;;4344810;32;19966;-37
2021/08/19 02:57:11;;;;;;;;;;;32.50;39.20;;;;;;4345046;32;19973;-39
2021/08/19 02:59:37;;;;;;;;;;;32.90;39.20;;;;;;4344952;32;19965;-38
2021/08/19 03:02:03;;;;;;;;;;;33.20;39.00;;;;;;4344312;33;19989;-38
2021/08/19 03:04:30;;;;;;;;;;;33.40;38.70;;;;;;4344720;32;20050;-38
2021/08/19 03:06:56;;;;;;;;;;;33.70;38.40;;;;;;4345067;32;19958;-38
2021/08/19 03:09:22;;;;;;;;;;;34.00;38.10;;;;;;4344334;32;19962;-38
2021/08/19 03:11:48;;;;;;;;;;;34.30;37.80;;;;;;4343146;33;19978;-38
2021/08/19 03:14:15;;;;;;;;;;;34.50;37.50;;;;;;4344538;32;19966;-39
2021/08/19 03:16:42;;;;;;;;;;;34.80;37.40;;;;;;4348894;32;20034;-38
2021/08/19 03:19:08;;;;;;;;;;;35.10;37.00;;;;;;4359017;32;20151;-38
2021/08/19 03:21:36;;;;;;;;;;;35.30;36.60;;;;;;4359189;32;19974;-38
2021/08/19 03:24:03;;;;;;;;;;;35.60;36.30;;;;;;4359043;32;19953;-39
2021/08/19 03:26:31;;;;;;;;;;;36.00;35.90;;;;;;4359339;32;19999;-38
2021/08/19 03:28:58;;;;;;;;;;;36.20;35.50;;;;;;4359215;32;19999;-37
2021/08/19 03:31:25;;;;;;;;;;;36.60;35.10;;;;;;4359216;32;20077;-39
2021/08/19 03:33:51;;;;;;;;;;;36.90;35.30;;;;;;4345050;32;19961;-37
2021/08/19 03:36:18;;;;;;;;;;;37.20;34.20;;;;;;4358922;32;20410;-37
2021/08/19 03:38:44;;;;;;;;;;;37.50;33.70;;;;;;4358692;32;19958;-37
2021/08/19 03:41:11;;;;;;;;;;;37.80;33.40;;;;;;4358954;32;20453;-38
2021/08/19 03:43:37;;;;;;;;;;;38.00;33.00;;;;;;4358700;32;20403;-38
2021/08/19 03:46:03;;;;;;;;;;;38.30;32.70;;;;;;4359166;32;19986;-38
2021/08/19 03:48:30;;;;;;;;;;;38.50;32.20;;;;;;4358698;32;20355;-38
2021/08/19 03:50:57;;;;;;;;;;;38.80;31.90;;;;;;4358999;32;20059;-38
2021/08/19 03:53:23;;;;;;;;;;;39.00;31.20;;;;;;4358378;32;20417;-38
2021/08/19 03:55:49;;;;;;;;;;;39.30;30.70;;;;;;4358390;32;20023;-38
2021/08/19 03:58:15;;;;;;;;;;;39.50;30.10;;;;;;4358465;32;20464;-38
2021/08/19 04:00:41;;;;;;;;;;;39.80;29.80;;;;;;4358294;32;20390;-38
2021/08/19 04:03:08;;;;;;;;;;;40.00;29.60;;;;;;4358968;32;20041;-39
2021/08/19 04:05:34;;;;;;;;;;;40.20;28.90;;;;;;4358671;32;19997;-37
2021/08/19 04:08:00;;;;;;;;;;;40.50;28.60;;;;;;4359078;32;19970;-38
2021/08/19 04:10:26;;;;;;;;;;;40.70;28.20;;;;;;4358920;32;19961;-39
2021/08/19 04:12:52;;;;;;;;;;;40.90;28.00;;;;;;4358363;32;19977;-38
2021/08/19 04:15:18;;;;;;;;;;;41.20;27.70;;;;;;4358489;32;19961;-38
2021/08/19 04:17:45;;;;;;;;;;;41.40;27.40;;;;;;4358459;32;20077;-38
2021/08/19 04:20:12;;;;;;;;;;;41.60;27.20;;;;;;4358128;32;20414;-38
2021/08/19 04:22:38;;;;;;;;;;;41.90;26.90;;;;;;4344124;32;20361;-39
2021/08/19 04:25:04;;;;;;;;;;;42.10;26.50;;;;;;4358371;32;20029;-38
2021/08/19 04:27:31;;;;;;;;;;;42.30;26.00;;;;;;4358711;32;19993;-39
2021/08/19 04:29:57;;;;;;;;;;;42.60;25.80;;;;;;4325596;33;20021;-38
2021/08/19 04:32:23;;;;;;;;;;;42.80;25.90;;;;;;4315309;33;19997;-38
2021/08/19 04:34:50;;;;;;;;;;;43.00;25.80;;;;;;4311917;33;19970;-38
2021/08/19 04:37:16;;;;;;;;;;;43.10;25.70;;;;;;4311401;33;19974;-38
2021/08/19 04:39:42;;;;;;;;;;;43.30;25.40;;;;;;4310995;33;20061;-38
2021/08/19 04:42:08;;;;;;;;;;;43.40;25.20;;;;;;4311577;33;20430;-39
2021/08/19 04:44:34;;;;;;;;;;;43.50;25.20;;;;;;4311189;33;19955;-38
2021/08/19 04:47:00;;;;;;;;;;;43.60;25.10;;;;;;4311918;33;19970;-38
2021/08/19 04:49:27;;;;;;;;;;;43.80;24.90;;;;;;4311421;33;19974;-39
2021/08/19 04:51:53;;;;;;;;;;;44.00;24.90;;;;;;4311634;33;20053;-38
2021/08/19 04:54:19;;;;;;;;;;;44.20;24.90;;;;;;4311662;33;19970;-38
2021/08/19 04:56:46;;;;;;;;;;;44.30;24.60;;;;;;4311355;33;19978;-39
2021/08/19 04:59:12;;;;;;;;;;;44.50;24.60;;;;;;4311269;33;19966;-38
2021/08/19 05:01:42;;;;;;;;;;;44.60;24.60;;;;;;4347911;32;20381;-39
2021/08/19 05:04:08;;;;;;;;;;;44.70;24.60;;;;;;4358019;32;20442;-38
2021/08/19 05:06:35;;;;;;;;;;;44.80;25.20;;;;;;4344568;32;19969;-38
2021/08/19 05:09:04;;;;;;;;;;;45.00;24.80;;;;;;4358523;32;19965;-38
2021/08/19 05:11:30;;;;;;;;;;;45.10;24.70;;;;;;4358212;32;20049;-39
2021/08/19 05:13:58;;;;;;;;;;;45.40;24.60;;;;;;4358139;32;19980;-39
2021/08/19 05:16:26;;;;;;;;;;;45.60;24.40;;;;;;4358013;32;20026;-38
2021/08/19 05:18:52;;;;;;;;;;;45.90;24.10;;;;;;4358075;32;19981;-38
2021/08/19 05:21:18;;;;;;;;;;;46.20;24.00;;;;;;4311018;33;19970;-39
2021/08/19 05:23:45;;;;;;;;;;;46.40;23.90;;;;;;4310900;33;19963;-38
2021/08/19 05:26:11;;;;;;;;;;;46.60;24.00;;;;;;4299228;33;20057;-39
2021/08/19 05:28:37;;;;;;;;;;;46.70;23.80;;;;;;4311611;33;19965;-39
2021/08/19 05:31:03;;;;;;;;;;;46.90;23.60;;;;;;4316937;33;20025;-39
2021/08/19 05:33:29;;;;;;;;;;;47.00;23.50;;;;;;4340900;33;19958;-39
2021/08/19 05:35:56;;;;;;;;;;;47.10;23.10;;;;;;4340536;33;20047;-38
2021/08/19 05:38:22;;;;;;;;;;;47.30;22.80;;;;;;4340552;33;19962;-38
2021/08/19 05:40:48;;;;;;;;;;;47.50;22.60;;;;;;4328176;33;19966;-38
2021/08/19 05:43:14;;;;;;;;;;;47.60;22.30;;;;;;4340377;33;19966;-38
2021/08/19 05:45:41;;;;;;;;;;;47.90;22.20;;;;;;4340753;33;19974;-39
2021/08/19 05:48:07;;;;;;;;;;;48.00;22.20;;;;;;4340883;33;20056;-38
2021/08/19 05:50:34;;;;;;;;;;;48.10;22.20;;;;;;4341281;33;19958;-38
2021/08/19 05:53:00;;;;;;;;;;;48.30;22.00;;;;;;4356628;32;20029;-38
2021/08/19 05:55:27;;;;;;;;;;;48.30;22.10;;;;;;4359776;32;19954;-38
2021/08/19 05:57:53;;;;;;;;;;;48.50;21.40;;;;;;4360231;32;19977;-38
2021/08/19 06:00:21;;;;;;;;;;;48.70;21.40;;;;;;4360284;32;19954;-38
2021/08/19 06:02:50;;;;;;;;;;;48.80;21.40;;;;;;4360514;32;20033;-38
2021/08/19 06:05:16;;;;;;;;;;;49.00;21.40;;;;;;4360638;32;20058;-38
2021/08/19 06:07:42;;;;;;;;;;;49.10;21.50;;;;;;4360165;32;19999;-37
2021/08/19 06:10:09;;;;;;;;;;;49.20;21.40;;;;;;4346369;32;19966;-37
2021/08/19 06:12:36;;;;;;;;;;;49.20;21.40;;;;;;4360406;32;19993;-37
2021/08/19 06:15:03;;;;;;;;;;;49.20;21.10;;;;;;4360036;32;19973;-38
2021/08/19 06:17:29;;;;;;;;;;;49.20;21.20;;;;;;4360165;32;20456;-38
2021/08/19 06:19:55;;;;;;;;;;;49.20;21.20;;;;;;4359831;32;19965;-38
2021/08/19 06:22:21;;;;;;;;;;;49.20;20.90;;;;;;4359917;32;20370;-39
2021/08/19 06:24:47;;;;;;;;;;;49.20;20.80;;;;;;4342648;33;19958;-39
2021/08/19 06:27:14;;;;;;;;;;;49.30;20.50;;;;;;4342573;33;19972;-38
2021/08/19 06:29:40;;;;;;;;;;;49.50;20.40;;;;;;4342704;33;20649;-38
2021/08/19 06:32:06;;;;;;;;;;;49.70;20.30;;;;;;4352365;32;19973;-38
2021/08/19 06:34:34;;;;;;;;;;;49.90;20.10;;;;;;4357346;32;20058;-38
2021/08/19 06:37:01;;;;;;;;;;;50.00;20.10;;;;;;4357319;32;19997;-38
2021/08/19 06:39:28;;;;;;;;;;;50.20;20.00;;;;;;4357074;32;19993;-38
2021/08/19 06:41:54;;;;;;;;;;;50.30;20.00;;;;;;4357505;32;20088;-38
2021/08/19 06:44:20;;;;;;;;;;;50.50;19.90;;;;;;4356898;32;20058;-37
2021/08/19 06:46:46;;;;;;;;;;;50.60;19.90;;;;;;4357524;32;19981;-37
2021/08/19 06:49:12;;;;;;;;;;;50.60;19.80;;;;;;4357246;32;19993;-39
2021/08/19 06:51:39;;;;;;;;;;;50.70;20.00;;;;;;4357192;32;19992;-38
2021/08/19 06:54:05;;;;;;;;;;;50.60;19.90;;;;;;4357129;32;19965;-38
2021/08/19 06:56:31;;;;;;;;;;;50.60;19.60;;;;;;4369479;32;20585;-38
2021/08/19 06:58:57;;;;;;;;;;;50.70;19.60;;;;;;4374029;32;19984;-38
2021/08/19 07:01:24;;;;;;;;;;;50.70;19.70;;;;;;4374051;32;19957;-46
2021/08/19 07:03:50;;;;;;;;;;;50.60;19.50;;;;;;4374062;32;19965;-39
2021/08/19 07:06:16;;;;;;;;;;;50.60;19.60;;;;;;4374120;32;19950;-38
2021/08/19 07:08:45;;;;;;;;;;;50.60;19.70;;;;;;4361122;32;19960;-38
2021/08/19 07:11:12;;;;;;;;;;;50.60;19.70;;;;;;4374453;32;20086;-38
2021/08/19 07:13:38;;;;;;;;;;;50.60;19.70;;;;;;4373209;32;19973;-39
2021/08/19 07:16:04;;;;;;;;;;;50.60;19.60;;;;;;4373832;32;19953;-38
2021/08/19 07:18:31;;;;;;;;;;;50.60;19.60;;;;;;4360832;32;19965;-37
2021/08/19 07:20:57;;;;;;;;;;;50.60;19.60;;;;;;4374198;32;20406;-38
2021/08/19 07:23:24;;;;;;;;;;;50.60;19.60;;;;;;4373967;32;19973;-38
2021/08/19 07:25:51;;;;;;;;;;;50.50;19.60;;;;;;4374265;32;19950;-38
2021/08/19 07:28:17;;;;;;;;;;;50.30;19.60;;;;;;4374372;32;20045;-38
2021/08/19 07:30:44;;;;;;;;;;;50.00;19.60;;;;;;4373475;32;19972;-38
2021/08/19 07:33:11;;;;;;;;;;;49.80;19.50;;;;;;4359274;32;20029;-38
2021/08/19 07:35:37;;;;;;;;;;;49.80;19.50;;;;;;4359170;32;20035;-39
2021/08/19 07:38:03;;;;;;;;;;;49.70;19.60;;;;;;4359224;32;19958;-37
2021/08/19 07:40:31;;;;;;;;;;;49.60;19.30;;;;;;4359345;32;20072;-39
2021/08/19 07:42:57;;;;;;;;;;;49.70;19.40;;;;;;4359129;32;19961;-37
2021/08/19 07:45:24;;;;;;;;;;;49.70;19.30;;;;;;4344620;32;20393;-38
2021/08/19 07:47:51;;;;;;;;;;;49.70;19.30;;;;;;4358813;32;20400;-38
2021/08/19 07:50:20;;;;;;;;;;;49.70;19.30;;;;;;4345081;32;19973;-39
2021/08/19 07:52:46;;;;;;;;;;;49.80;19.30;;;;;;4358543;32;20397;-38
2021/08/19 07:55:12;;;;;;;;;;;49.90;19.30;;;;;;4358972;32;19965;-38
2021/08/19 07:57:43;;;;;;;;;;;49.90;19.20;;;;;;4358642;32;19974;-39
2021/08/19 08:00:10;;;;;;;;;;;50.00;19.10;;;;;;4357351;32;19955;-38
2021/08/19 08:02:36;;;;;;;;;;;50.00;19.10;;;;;;4358670;32;20019;-40
2021/08/19 08:05:04;;;;;;;;;;;50.10;19.10;;;;;;4344847;32;20041;-39
2021/08/19 08:07:30;;;;;;;;;;;50.10;19.00;;;;;;4358748;32;19965;-39
2021/08/19 08:09:57;;;;;;;;;;;50.00;19.00;;;;;;4358355;32;19965;-39
2021/08/19 08:12:23;;;;;;;;;;;49.90;18.90;;;;;;4358641;32;19958;-40
2021/08/19 08:14:50;;;;;;;;;;;49.80;18.80;;;;;;4357914;32;19961;-40
2021/08/19 08:17:19;;;;;;;;;;;49.60;18.80;;;;;;4358307;32;19966;-38
2021/08/19 08:19:46;;;;;;;;;;;49.50;18.90;;;;;;4359063;32;20052;-38
2021/08/19 08:22:13;;;;;;;;;;;49.40;18.90;;;;;;4358125;32;19964;-39
2021/08/19 08:24:39;;;;;;;;;;;49.30;18.90;;;;;;4358584;32;20050;-39
2021/08/19 08:27:06;;;;;;;;;;;49.10;18.90;;;;;;4358146;32;20395;-38
2021/08/19 08:29:32;;;;;;;;;;;48.80;18.80;;;;;;4344081;32;19962;-38
2021/08/19 08:32:04;;;;;;;;;;;48.70;18.80;;;;;;4358238;32;19991;-38
2021/08/19 08:34:32;;;;;;;;;;;48.70;18.80;;;;;;4358080;32;19985;-38
2021/08/19 08:36:58;;;;;;;;;;;48.90;18.80;;;;;;4358582;32;20424;-38
2021/08/19 08:39:25;;;;;;;;;;;48.80;18.70;;;;;;4358371;32;19970;-39
2021/08/19 08:41:52;;;;;;;;;;;48.90;18.70;;;;;;4358197;32;19985;-39
2021/08/19 08:44:20;;;;;;;;;;;49.00;18.60;;;;;;4358520;32;20051;-38
2021/08/19 08:46:46;;;;;;;;;;;49.10;18.60;;;;;;4358443;32;19962;-39
2021/08/19 08:49:16;;;;;;;;;;;49.30;18.50;;;;;;4358278;32;20374;-38
2021/08/19 08:51:52;;;;;;;;;;;49.50;18.40;;;;;;4356945;32;19981;-39
2021/08/19 08:54:19;;;;;;;;;;;49.80;18.20;;;;;;4357135;32;19962;-39
2021/08/19 08:56:45;;;;;;;;;;;50.10;18.20;;;;;;4358782;32;19957;-38
2021/08/19 08:59:11;;;;;;;;;;;50.30;18.00;;;;;;4358223;32;19973;-38
2021/08/19 09:01:38;;;;;;;;;;;50.30;17.80;;;;;;4357845;32;20042;-38
2021/08/19 09:04:04;;;;;;;;;;;50.20;17.80;;;;;;4358059;32;20373;-38
2021/08/19 09:06:38;;;;;;;;;;;49.90;17.80;;;;;;4356844;32;19960;-39
2021/08/19 09:09:36;;;;;;;;;;;49.80;18.00;;;;;;4357975;32;19981;-38
2021/08/19 09:12:06;;;;;;;;;;;49.70;18.00;;;;;;4325753;33;19959;-39
2021/08/19 09:14:35;;;;;;;;;;;49.60;18.10;;;;;;4325893;33;19958;-39
2021/08/19 09:17:03;;;;;;;;;;;49.60;18.00;;;;;;4325831;33;19962;-38
2021/08/19 09:19:33;;;;;;;;;;;49.60;18.00;;;;;;4326262;33;20383;-38
2021/08/19 09:22:01;;;;;;;;;;;49.90;18.00;;;;;;4325515;33;20500;-38
2021/08/19 09:24:28;;;;;;;;;;;49.90;18.00;;;;;;4326740;33;20014;-37
2021/08/19 09:26:55;;;;;;;;;;;50.00;17.90;;;;;;4328562;33;20067;-37
2021/08/19 09:29:29;;;;;;;;;;;50.00;17.90;;;;;;4328634;33;19982;-37
2021/08/19 09:32:07;;;;;;;;;;;50.00;17.70;;;;;;4316406;33;20052;-38
2021/08/19 09:34:34;;;;;;;;;;;50.00;17.70;;;;;;4328402;33;19967;-38
2021/08/19 09:37:09;;;;;;;;;;;49.90;17.70;;;;;;4328889;33;19989;-38
2021/08/19 09:39:54;;;;;;;;;;;49.80;17.40;;;;;;4328611;33;19981;-38
2021/08/19 09:42:20;;;;;;;;;;;49.50;17.40;;;;;;4316393;33;20030;-38
2021/08/19 09:44:47;;;;;;;;;;;49.20;17.50;;;;;;4304080;33;19986;-38
2021/08/19 09:47:40;;;;;;;;;;;49.00;17.80;;;;;;4326412;32;19968;-38
2021/08/19 09:50:30;;;;;;;;;;;48.90;17.60;;;;;;4357518;32;19962;-39
2021/08/19 09:52:56;;;;;;;;;;;48.70;17.50;;;;;;4360258;32;19966;-38
2021/08/19 09:55:29;;;;;;;;;;;48.70;17.60;;;;;;4334197;32;20053;-39
2021/08/19 09:57:57;;;;;;;;;;;48.60;17.40;;;;;;4346690;32;19981;-38
2021/08/19 10:00:26;;;;;;;;;;;48.50;17.30;;;;;;4360547;32;20029;-39
2021/08/19 10:02:56;;;;;;;;;;;48.50;17.40;;;;;;4359877;32;19973;-39
2021/08/19 10:05:22;;;;;;;;;;;48.50;17.40;;;;;;4360634;32;19985;-38
2021/08/19 10:07:48;;;;;;;;;;;48.40;17.30;;;;;;4360647;32;19965;-39
2021/08/19 10:10:15;;;;;;;;;;;48.40;17.30;;;;;;4359679;32;20023;-38
2021/08/19 10:12:43;;;;;;;;;;;48.70;17.50;;;;;;4359927;32;19983;-37
2021/08/19 10:15:09;;;;;;;;;;;48.80;17.90;;;;;;4360266;32;19953;-37
2021/08/19 10:17:36;;;;;;;;;;;48.90;17.20;;;;;;4359921;32;19993;-37
2021/08/19 10:20:07;;;;;;;;;;;49.00;17.20;;;;;;4360413;32;19958;-37
2021/08/19 10:22:33;;;;;;;;;;;48.90;17.20;;;;;;4346219;32;20403;-38
2021/08/19 10:25:00;;;;;;;;;;;48.90;17.20;;;;;;4345902;32;19966;-37
2021/08/19 10:27:28;;;;;;;;;;;49.00;17.20;;;;;;4333964;32;19954;-38
2021/08/19 10:29:56;;;;;;;;;;;49.00;17.10;;;;;;4346023;32;19981;-39
2021/08/19 10:32:41;;;;;;;;;;;49.10;17.10;;;;;;4360007;32;19953;-38
2021/08/19 10:35:09;;;;;;;;;;;49.10;17.00;;;;;;4359986;32;20025;-38
2021/08/19 10:37:47;;;;;;;;;;;49.20;16.90;;;;;;4359227;32;19958;-39
2021/08/19 10:40:37;;;;;;;;;;;49.00;16.70;;;;;;4360153;32;19983;-39
2021/08/19 10:43:30;;;;;;;;;;;48.80;16.70;;;;;;4355794;32;20425;-39
2021/08/19 10:46:09;;;;;;;;;;;48.70;16.70;;;;;;4360129;32;20047;-39
2021/08/19 10:48:49;;;;;;;;;;;48.50;16.60;;;;;;4359582;32;20373;-39
2021/08/19 10:51:16;;;;;;;;;;;48.30;16.60;;;;;;4359742;32;19985;-39
2021/08/19 10:53:42;;;;;;;;;;;48.30;16.60;;;;;;4359686;32;19978;-38
2021/08/19 10:56:08;;;;;;;;;;;48.30;16.60;;;;;;4370359;32;20430;-38
2021/08/19 10:58:36;;;;;;;;;;;48.30;16.60;;;;;;4357701;32;19997;-38
2021/08/19 11:01:15;;;;;;;;;;;48.30;16.50;;;;;;4359408;32;19956;-39
2021/08/19 11:03:43;;;;;;;;;;;48.40;16.60;;;;;;4359634;32;19965;-38
2021/08/19 11:06:17;;;;;;;;;;;48.50;16.40;;;;;;4370315;32;19954;-38
2021/08/19 11:08:52;;;;;;;;;;;48.60;16.20;;;;;;4359684;32;19950;-38
2021/08/19 11:11:26;;;;;;;;;;;48.60;15.90;;;;;;4359412;32;19977;-38
2021/08/19 11:14:09;;;;;;;;;;;48.70;15.80;;;;;;4370255;32;20455;-37
2021/08/19 11:16:37;;;;;;;;;;;48.80;15.60;;;;;;4362919;32;19958;-38
2021/08/19 11:19:17;;;;;;;;;;;48.90;15.80;;;;;;4374428;32;19974;-38
2021/08/19 11:21:50;;;;;;;;;;;49.00;15.80;;;;;;4373771;32;19992;-38
2021/08/19 11:24:16;;;;;;;;;;;49.00;15.90;;;;;;4372605;32;20021;-38
2021/08/19 11:26:58;;;;;;;;;;;49.10;15.80;;;;;;4372435;32;20047;-38
2021/08/19 11:29:43;;;;;;;;;;;49.20;15.90;;;;;;4374048;32;20386;-38
2021/08/19 11:32:11;;;;;;;;;;;49.40;16.00;;;;;;4374229;32;19968;-37
2021/08/19 11:34:39;;;;;;;;;;;49.80;15.90;;;;;;4373483;32;19965;-38
2021/08/19 11:37:06;;;;;;;;;;;50.20;16.00;;;;;;4373771;32;20420;-39
2021/08/19 11:39:32;;;;;;;;;;;50.40;15.90;;;;;;4373958;32;19977;-37
2021/08/19 11:42:04;;;;;;;;;;;50.30;15.80;;;;;;4373678;32;19957;-37
2021/08/19 11:44:31;;;;;;;;;;;50.30;15.80;;;;;;4373565;32;20027;-38
2021/08/19 11:47:04;;;;;;;;;;;50.10;15.60;;;;;;4374308;32;20474;-38
2021/08/19 11:49:31;;;;;;;;;;;49.80;15.70;;;;;;4374125;32;20073;-38
2021/08/19 11:52:05;;;;;;;;;;;49.80;15.80;;;;;;4374002;32;20025;-38
2021/08/19 11:54:42;;;;;;;;;;;49.70;15.50;;;;;;4373594;32;19988;-38
2021/08/19 11:57:08;;;;;;;;;;;49.60;15.60;;;;;;4373668;32;20038;-37
2021/08/19 11:59:34;;;;;;;;;;;49.70;15.50;;;;;;4359301;32;19969;-38
2021/08/19 12:02:00;;;;;;;;;;;49.90;15.50;;;;;;4359639;32;20035;-39
2021/08/19 12:04:34;;;;;;;;;;;50.00;15.40;;;;;;4373777;32;19970;-38
2021/08/19 12:07:02;;;;;;;;;;;50.20;15.40;;;;;;4373619;32;20100;-39
2021/08/19 12:09:30;;;;;;;;;;;50.50;15.40;;;;;;4373890;32;20025;-38
2021/08/19 12:11:56;;;;;;;;;;;50.80;15.40;;;;;;4359409;32;20370;-38
2021/08/19 12:14:26;;;;;;;;;;;51.10;15.40;;;;;;4373597;32;19972;-38
2021/08/19 12:16:54;;;;;;;;;;;51.20;15.50;;;;;;4373019;32;20051;-38
2021/08/19 12:19:23;;;;;;;;;;;51.30;15.50;;;;;;4373560;32;20069;-38
2021/08/19 12:21:52;;;;;;;;;;;51.30;15.50;;;;;;4373146;32;19982;-38
2021/08/19 12:24:35;;;;;;;;;;;51.30;15.50;;;;;;4373023;32;19958;-39
2021/08/19 12:27:06;;;;;;;;;;;51.30;15.50;;;;;;4373440;32;20092;-38
2021/08/19 12:29:37;;;;;;;;;;;51.30;15.70;;;;;;4372965;32;19981;-39
2021/08/19 12:32:04;;;;;;;;;;;51.30;15.50;;;;;;4364166;32;20025;-38
2021/08/19 12:34:33;;;;;;;;;;;51.30;15.50;;;;;;4358094;32;20022;-37
2021/08/19 12:37:06;;;;;;;;;;;51.20;15.40;;;;;;4332316;32;19998;-38
2021/08/19 12:39:36;;;;;;;;;;;51.00;15.40;;;;;;4358215;32;20406;-38
2021/08/19 12:42:07;;;;;;;;;;;50.90;15.30;;;;;;4358214;32;20377;-39
2021/08/19 12:44:34;;;;;;;;;;;51.00;15.40;;;;;;4357718;32;20412;-38
2021/08/19 12:47:00;;;;;;;;;;;51.00;15.50;;;;;;4344730;32;19961;-38
2021/08/19 12:49:36;;;;;;;;;;;50.80;15.50;;;;;;4357801;32;20359;-38
2021/08/19 12:52:25;;;;;;;;;;;50.80;15.60;;;;;;4357774;32;19970;-38
2021/08/19 12:55:15;;;;;;;;;;;50.60;15.40;;;;;;4357699;32;19961;-38
2021/08/19 12:57:50;;;;;;;;;;;50.50;15.30;;;;;;4358177;32;19977;-38
2021/08/19 13:00:21;;;;;;;;;;;50.70;15.30;;;;;;4359366;32;20033;-38
2021/08/19 13:02:48;;;;;;;;;;;50.80;15.30;;;;;;4361181;32;20462;-38
2021/08/19 13:05:18;;;;;;;;;;;50.80;15.30;;;;;;4334428;32;19978;-38
2021/08/19 13:07:45;;;;;;;;;;;50.80;15.30;;;;;;4361010;32;19968;-38
2021/08/19 13:10:11;;;;;;;;;;;50.70;16.00;;;;;;4361126;32;19954;-38
2021/08/19 13:12:38;;;;;;;;;;;50.60;15.40;;;;;;4360960;32;20008;-39
2021/08/19 13:15:04;;;;;;;;;;;50.40;15.40;;;;;;4360936;32;19965;-38
2021/08/19 13:17:31;;;;;;;;;;;50.30;15.50;;;;;;4360757;32;19984;-38
2021/08/19 13:19:57;;;;;;;;;;;50.10;15.40;;;;;;4360592;32;20366;-38
2021/08/19 13:22:26;;;;;;;;;;;49.90;15.50;;;;;;4360591;32;19980;-38
2021/08/19 13:24:52;;;;;;;;;;;49.70;15.50;;;;;;4360490;32;19977;-38
2021/08/19 13:27:20;;;;;;;;;;;49.40;15.50;;;;;;4360590;32;19988;-38
2021/08/19 13:29:46;;;;;;;;;;;49.30;15.60;;;;;;4360616;32;19964;-39
2021/08/19 13:32:14;;;;;;;;;;;49.20;15.60;;;;;;4360937;32;19981;-39
2021/08/19 13:34:42;;;;;;;;;;;49.30;15.70;;;;;;4360661;32;19954;-38
2021/08/19 13:37:08;;;;;;;;;;;49.20;15.70;;;;;;4360339;32;20402;-39
2021/08/19 13:39:35;;;;;;;;;;;49.20;15.70;;;;;;4360017;32;20021;-39
2021/08/19 13:42:01;;;;;;;;;;;49.20;15.70;;;;;;4360569;32;19958;-38
2021/08/19 13:44:28;;;;;;;;;;;49.20;15.70;;;;;;4360625;32;19986;-38
2021/08/19 13:46:54;;;;;;;;;;;49.20;15.70;;;;;;4360373;32;20389;-39
2021/08/19 13:49:22;;;;;;;;;;;49.20;15.70;;;;;;4359120;32;19964;-39
2021/08/19 13:51:48;;;;;;;;;;;49.10;15.70;;;;;;4360115;32;20428;-39
2021/08/19 13:54:16;;;;;;;;;;;49.00;15.70;;;;;;4360169;32;19954;-38
2021/08/19 13:56:43;;;;;;;;;;;49.10;15.90;;;;;;4360494;32;20083;-39
2021/08/19 13:59:10;;;;;;;;;;;49.20;15.80;;;;;;4358740;32;20470;-38
2021/08/19 14:01:36;;;;;;;;;;;49.30;15.80;;;;;;4360350;32;20414;-38
2021/08/19 14:04:02;;;;;;;;;;;49.30;15.80;;;;;;4360211;32;20421;-37
2021/08/19 14:06:29;;;;;;;;;;;49.20;15.80;;;;;;4359907;32;19954;-38
2021/08/19 14:08:55;;;;;;;;;;;49.00;15.80;;;;;;4360035;32;19969;-38
2021/08/19 14:11:21;;;;;;;;;;;48.90;15.80;;;;;;4358995;32;20036;-38
2021/08/19 14:13:48;;;;;;;;;;;48.70;15.80;;;;;;4359759;32;19972;-38
2021/08/19 14:16:14;;;;;;;;;;;48.50;15.70;;;;;;4361327;32;20406;-38
2021/08/19 14:18:41;;;;;;;;;;;48.40;15.80;;;;;;4360933;32;19953;-40
2021/08/19 14:21:08;;;;;;;;;;;48.40;15.90;;;;;;4361132;32;19956;-38